Time;durP1;ratioP1;P1;durP2;ratioP2;P2;SDS_P1;SDS_P2;PMS_P1;PMS_P2;Temp;Humidity;BMP_temperature;BMP_pressure;BME280_temperature;BME280_humidity;BME280_pressure;Samples;Min_cycle;Max_cycle;Signal;HPM_P1;HPM_P2
2023/08/05 00:00:58;;;;;;;6.50;4.10;;;;;;;17.06;81.11;101338.22;5087088;28;20055;-62
2023/08/05 00:03:25;;;;;;;7.95;4.70;;;;;;;17.05;81.08;101342.97;5093693;28;20403;-63
2023/08/05 00:05:53;;;;;;;9.68;4.20;;;;;;;16.88;81.92;101349.53;5074802;28;20047;-63
2023/08/05 00:08:21;;;;;;;8.35;4.25;;;;;;;16.44;83.64;101354.91;5042108;28;20495;-62
2023/08/05 00:10:48;;;;;;;8.68;3.90;;;;;;;16.50;83.74;101350.78;5093558;28;20353;-62
2023/08/05 00:13:16;;;;;;;7.90;4.13;;;;;;;16.67;83.73;101347.88;5093174;28;20044;-63
2023/08/05 00:15:43;;;;;;;8.57;4.45;;;;;;;16.82;82.68;101347.28;5093267;28;20523;-63
2023/08/05 00:18:10;;;;;;;6.75;4.25;;;;;;;16.91;82.02;101348.03;5093760;28;20052;-62
2023/08/05 00:20:38;;;;;;;7.10;4.38;;;;;;;16.81;82.34;101342.88;5084549;28;20040;-63
2023/08/05 00:23:06;;;;;;;7.43;4.05;;;;;;;16.89;81.82;101342.78;5094152;28;20048;-63
2023/08/05 00:25:33;;;;;;;7.90;4.22;;;;;;;16.88;81.77;101342.34;5093380;28;20051;-62
2023/08/05 00:28:00;;;;;;;9.00;4.13;;;;;;;16.86;81.54;101337.09;5098463;28;20047;-63
2023/08/05 00:30:28;;;;;;;14.25;4.40;;;;;;;16.85;82.02;101341.84;5092432;28;20077;-63
2023/08/05 00:32:55;;;;;;;8.50;4.00;;;;;;;16.92;81.51;101334.91;5075627;28;20063;-63
2023/08/05 00:35:23;;;;;;;10.52;3.97;;;;;;;17.03;80.95;101331.38;5093221;28;20032;-63
2023/08/05 00:37:50;;;;;;;8.23;3.72;;;;;;;16.83;81.62;101329.44;5093534;28;20074;-63
2023/08/05 00:40:17;;;;;;;9.60;4.00;;;;;;;16.78;82.02;101324.91;5099457;28;20067;-62
2023/08/05 00:42:45;;;;;;;6.97;4.13;;;;;;;16.78;81.97;101321.28;5109527;28;20052;-62
2023/08/05 00:45:12;;;;;;;8.00;4.45;;;;;;;16.58;82.57;101314.56;5103330;28;20058;-64
2023/08/05 00:47:40;;;;;;;7.25;4.30;;;;;;;16.76;82.68;101306.91;5109917;28;20456;-63
2023/08/05 00:50:09;;;;;;;6.90;4.10;;;;;;;16.85;81.81;101299.28;5107845;28;20035;-63
2023/08/05 00:52:37;;;;;;;10.02;4.43;;;;;;;16.98;80.75;101300.97;5060514;28;20549;-62
2023/08/05 00:55:05;;;;;;;11.68;4.30;;;;;;;16.90;81.52;101287.94;5081211;28;20495;-61
2023/08/05 00:57:33;;;;;;;7.40;4.10;;;;;;;16.94;81.30;101290.88;5107183;28;20052;-62
2023/08/05 01:00:00;;;;;;;8.52;4.18;;;;;;;16.86;81.28;101298.13;5086503;28;20676;-63
2023/08/05 01:02:28;;;;;;;7.68;4.03;;;;;;;16.79;81.24;101311.78;5106876;28;20054;-63
2023/08/05 01:04:55;;;;;;;8.50;4.07;;;;;;;16.71;82.08;101321.03;5089073;28;20047;-63
2023/08/05 01:07:23;;;;;;;7.93;4.13;;;;;;;16.95;81.11;101332.25;5045011;28;20044;-62
2023/08/05 01:09:51;;;;;;;9.73;3.88;;;;;;;16.87;81.55;101330.38;5108441;28;20044;-62
2023/08/05 01:12:19;;;;;;;6.55;3.58;;;;;;;16.74;81.46;101332.28;5111673;28;20043;-63
2023/08/05 01:14:46;;;;;;;7.68;4.30;;;;;;;16.66;81.74;101335.13;5097586;28;20043;-62
2023/08/05 01:17:14;;;;;;;7.95;4.00;;;;;;;16.53;82.42;101325.91;5112747;28;20709;-63
2023/08/05 01:19:42;;;;;;;8.80;3.80;;;;;;;16.44;82.67;101327.91;5112878;28;20491;-63
2023/08/05 01:22:20;;;;;;;7.10;3.72;;;;;;;16.32;83.12;101329.81;5077954;28;20482;-62
2023/08/05 01:24:56;;;;;;;8.50;3.95;;;;;;;16.48;82.57;101311.38;5081250;28;20051;-61
2023/08/05 01:27:24;;;;;;;14.38;3.85;;;;;;;16.48;81.93;101300.25;5080869;28;20054;-61
2023/08/05 01:29:52;;;;;;;7.18;3.60;;;;;;;16.48;81.81;101291.91;5084571;28;20054;-60
2023/08/05 01:32:20;;;;;;;9.05;3.53;;;;;;;16.51;81.95;101297.63;5080194;28;20044;-61
2023/08/05 01:34:47;;;;;;;7.25;4.05;;;;;;;16.31;82.26;101301.19;5112187;28;20570;-60
2023/08/05 01:37:15;;;;;;;8.50;3.35;;;;;;;16.33;82.78;101306.41;5108560;28;20048;-61
2023/08/05 01:39:42;;;;;;;8.02;4.03;;;;;;;16.17;82.91;101306.19;5097882;28;20067;-61
2023/08/05 01:42:10;;;;;;;8.68;3.50;;;;;;;16.24;84.02;101316.75;5075884;28;20047;-60
2023/08/05 01:44:37;;;;;;;8.35;3.72;;;;;;;16.29;83.05;101311.00;5110094;28;20039;-60
2023/08/05 01:47:05;;;;;;;9.13;3.72;;;;;;;16.40;82.66;101304.72;5091505;28;20391;-61
2023/08/05 01:49:32;;;;;;;7.60;4.05;;;;;;;16.45;82.15;101304.50;5086885;28;20062;-61
2023/08/05 01:51:59;;;;;;;8.20;4.20;;;;;;;16.52;82.07;101307.59;5109343;28;20055;-60
2023/08/05 01:54:27;;;;;;;8.20;3.72;;;;;;;16.77;81.18;101330.81;5108877;28;20522;-60
2023/08/05 01:56:54;;;;;;;8.48;3.67;;;;;;;16.51;81.48;101338.53;5107339;28;20047;-61
2023/08/05 01:59:21;;;;;;;9.23;3.72;;;;;;;16.17;83.20;101349.81;5091385;28;20051;-61
2023/08/05 02:01:49;;;;;;;9.10;4.00;;;;;;;15.99;84.89;101353.84;5084167;28;20078;-61
2023/08/05 02:04:16;;;;;;;5.68;3.38;;;;;;;16.21;84.42;101357.19;5065880;28;20407;-60
2023/08/05 02:06:44;;;;;;;13.80;4.10;;;;;;;16.45;83.06;101342.63;5103268;28;20522;-60
2023/08/05 02:09:11;;;;;;;8.50;3.85;;;;;;;16.37;83.14;101335.97;5082303;28;20062;-61
2023/08/05 02:11:38;;;;;;;8.07;3.40;;;;;;;16.43;82.96;101336.56;5084941;28;20052;-60
2023/08/05 02:14:06;;;;;;;7.05;3.90;;;;;;;16.49;82.83;101315.81;5084476;28;20483;-61
2023/08/05 02:16:33;;;;;;;8.43;3.83;;;;;;;16.63;82.06;101308.00;5100068;28;20051;-60
2023/08/05 02:19:01;;;;;;;10.65;3.70;;;;;;;16.64;81.94;101290.16;5109468;28;20048;-61
2023/08/05 02:21:29;;;;;;;9.93;4.43;;;;;;;16.47;82.17;101274.44;5105872;28;20074;-60
2023/08/05 02:23:56;;;;;;;8.73;4.00;;;;;;;16.46;82.59;101272.78;5110792;28;20047;-60
2023/08/05 02:26:24;;;;;;;8.30;3.78;;;;;;;16.39;82.85;101264.16;5111145;28;20067;-60
2023/08/05 02:28:51;;;;;;;9.13;3.85;;;;;;;16.43;83.04;101258.72;5098015;28;20479;-61
2023/08/05 02:31:18;;;;;;;8.20;3.83;;;;;;;16.43;82.96;101259.53;5115013;28;20059;-61
2023/08/05 02:33:46;;;;;;;14.30;4.15;;;;;;;16.38;83.37;101256.16;5095709;28;20063;-61
2023/08/05 02:36:15;;;;;;;12.75;4.22;;;;;;;16.53;83.25;101255.56;5097414;28;20051;-61
2023/08/05 02:38:42;;;;;;;7.28;3.80;;;;;;;16.58;83.00;101250.59;5109728;28;20051;-60
2023/08/05 02:41:10;;;;;;;10.73;4.10;;;;;;;16.55;83.04;101233.78;5114808;28;20181;-61
2023/08/05 02:43:37;;;;;;;10.50;3.97;;;;;;;16.68;82.08;101216.00;5092709;28;20056;-61
2023/08/05 02:46:04;;;;;;;8.60;3.40;;;;;;;16.61;82.70;101210.19;5114919;28;20036;-61
2023/08/05 02:48:32;;;;;;;5.43;3.00;;;;;;;16.74;81.49;101209.88;5112464;28;20044;-61
2023/08/05 02:50:59;;;;;;;7.60;3.63;;;;;;;16.74;82.00;101214.63;5076821;28;20035;-61
2023/08/05 02:53:28;;;;;;;14.55;4.00;;;;;;;16.77;81.64;101205.59;5112253;28;20050;-61
2023/08/05 02:55:55;;;;;;;12.35;3.53;;;;;;;16.83;81.62;101209.78;5006048;28;20048;-61
2023/08/05 02:58:22;;;;;;;10.85;3.70;;;;;;;16.67;82.31;101203.22;5110825;28;20028;-60
2023/08/05 03:00:50;;;;;;;9.25;3.97;;;;;;;16.67;82.02;101206.84;5095678;28;20056;-61
2023/08/05 03:03:17;;;;;;;8.32;3.85;;;;;;;16.70;82.16;101210.91;5114714;28;20047;-61
2023/08/05 03:05:45;;;;;;;10.00;3.75;;;;;;;16.67;82.45;101200.44;5109202;28;20043;-60
2023/08/05 03:08:12;;;;;;;7.28;3.33;;;;;;;16.95;81.65;101209.00;5114980;28;20043;-63
2023/08/05 03:10:40;;;;;;;8.60;3.20;;;;;;;16.92;81.31;101207.72;5097266;28;20059;-62
2023/08/05 03:13:07;;;;;;;11.27;3.28;;;;;;;16.67;82.01;101198.50;5113528;28;20048;-63
2023/08/05 03:15:35;;;;;;;9.48;3.35;;;;;;;16.64;82.51;101198.34;5092285;28;20047;-61
2023/08/05 03:18:10;;;;;;;7.55;3.70;;;;;;;16.55;83.48;101200.41;5096281;28;20051;-60
2023/08/05 03:20:39;;;;;;;10.25;3.47;;;;;;;16.45;83.87;101200.81;5095410;28;20415;-60
2023/08/05 03:23:13;;;;;;;6.93;3.25;;;;;;;16.48;83.83;101211.25;5113300;28;20515;-61
2023/08/05 03:25:45;;;;;;;9.65;3.15;;;;;;;16.71;83.30;101207.78;5113239;28;20055;-60
2023/08/05 03:28:12;;;;;;;9.35;3.30;;;;;;;16.61;83.34;101201.84;5088834;28;20044;-61
2023/08/05 03:30:45;;;;;;;9.32;3.53;;;;;;;16.55;83.95;101205.97;5094756;28;20051;-60
2023/08/05 03:33:18;;;;;;;10.55;3.45;;;;;;;16.49;83.70;101204.56;5101621;28;20421;-60
2023/08/05 03:35:47;;;;;;;13.43;3.97;;;;;;;16.65;83.57;101203.56;5051140;28;20048;-60
2023/08/05 03:38:18;;;;;;;9.05;3.65;;;;;;;16.57;83.37;101204.47;5008297;28;20062;-61
2023/08/05 03:40:45;;;;;;;8.40;3.00;;;;;;;16.70;82.76;101192.22;5107679;28;20558;-61
2023/08/05 03:43:12;;;;;;;8.90;2.75;;;;;;;16.34;84.33;101197.63;5111605;28;20047;-61
2023/08/05 03:45:40;;;;;;;8.88;3.42;;;;;;;16.54;83.83;101201.56;5108217;28;20069;-62
2023/08/05 03:48:07;;;;;;;12.88;3.90;;;;;;;16.56;83.47;101207.63;5099503;28;20035;-60
2023/08/05 03:50:35;;;;;;;8.32;3.30;;;;;;;16.68;82.70;101202.09;5062526;28;20052;-61
2023/08/05 03:53:02;;;;;;;10.95;3.15;;;;;;;16.50;83.34;101206.19;5109647;28;20043;-60
2023/08/05 03:55:31;;;;;;;7.20;3.50;;;;;;;16.32;84.04;101199.13;5105433;28;20047;-60
2023/08/05 03:57:59;;;;;;;10.30;2.92;;;;;;;16.32;84.76;101188.81;5003062;28;20313;-60
2023/08/05 04:00:26;;;;;;;7.75;3.67;;;;;;;16.38;84.37;101183.84;5089700;28;20055;-60
2023/08/05 04:02:54;;;;;;;8.13;3.17;;;;;;;16.15;85.12;101177.84;5093792;28;20051;-60
2023/08/05 04:05:21;;;;;;;9.68;3.60;;;;;;;16.37;84.81;101163.56;5088112;28;20081;-62
2023/08/05 04:07:48;;;;;;;7.00;3.40;;;;;;;16.40;84.53;101148.19;5109361;28;20039;-60
2023/08/05 04:10:19;;;;;;;9.48;3.08;;;;;;;16.44;84.03;101126.91;5090071;28;20044;-60
2023/08/05 04:12:47;;;;;;;9.35;3.45;;;;;;;16.54;83.65;101132.88;5102491;28;20059;-60
2023/08/05 04:15:16;;;;;;;8.30;3.63;;;;;;;16.51;83.23;101127.97;5093658;28;20050;-60
2023/08/05 04:17:44;;;;;;;;;;;;;;;16.59;82.75;101120.69;5093460;28;20044;-60
2023/08/05 04:20:12;;;;;;;9.07;3.10;;;;;;;16.67;82.67;101117.00;5111649;28;19924;-61
2023/08/05 04:22:39;;;;;;;7.97;3.17;;;;;;;16.60;82.32;101116.75;5107465;28;20048;-61
2023/08/05 04:25:07;;;;;;;12.43;2.92;;;;;;;16.66;82.21;101115.38;5088704;28;20047;-60
2023/08/05 04:27:34;;;;;;;9.20;3.22;;;;;;;16.72;81.93;101114.81;5111082;28;20064;-61
2023/08/05 04:30:02;;;;;;;9.10;3.08;;;;;;;16.65;81.83;101113.75;5088270;28;20710;-60
2023/08/05 04:32:30;;;;;;;7.78;2.70;;;;;;;16.69;81.90;101112.72;5110437;28;20054;-61
2023/08/05 04:34:57;;;;;;;11.05;2.95;;;;;;;16.75;81.67;101136.38;5080508;28;20051;-60
2023/08/05 04:37:24;;;;;;;9.15;3.05;;;;;;;16.60;81.92;101133.44;5106103;28;20048;-61
2023/08/05 04:39:52;;;;;;;14.20;3.00;;;;;;;16.62;82.40;101131.94;5104070;28;20415;-60
2023/08/05 04:42:19;;;;;;;8.80;3.35;;;;;;;16.72;81.93;101139.03;5110748;28;20051;-60
2023/08/05 04:44:47;;;;;;;10.02;2.95;;;;;;;16.75;81.73;101128.03;5104527;28;20058;-61
2023/08/05 04:47:14;;;;;;;6.25;3.25;;;;;;;16.80;81.87;101130.63;5112812;28;20048;-60
2023/08/05 04:49:43;;;;;;;8.80;3.13;;;;;;;16.78;80.97;101140.44;5111022;28;20070;-61
2023/08/05 04:52:12;;;;;;;13.60;3.22;;;;;;;16.78;81.25;101141.28;5107444;28;20062;-62
2023/08/05 04:54:41;;;;;;;7.50;3.05;;;;;;;16.81;80.85;101125.84;5084474;28;20407;-63
2023/08/05 04:57:09;;;;;;;8.03;3.10;;;;;;;16.82;80.75;101124.69;5077958;28;20040;-63
2023/08/05 04:59:37;;;;;;;7.07;2.90;;;;;;;16.61;81.15;101124.78;5107959;28;20493;-63
2023/08/05 05:02:04;;;;;;;9.07;3.30;;;;;;;16.76;81.37;101117.72;5112082;28;20039;-62
2023/08/05 05:04:32;;;;;;;10.98;3.00;;;;;;;16.86;80.51;101118.09;5091353;28;20138;-62
2023/08/05 05:06:59;;;;;;;8.40;2.72;;;;;;;16.83;80.33;101118.78;5081685;28;20047;-62
2023/08/05 05:09:27;;;;;;;6.32;2.80;;;;;;;16.72;81.02;101114.00;5090440;28;20044;-63
2023/08/05 05:11:55;;;;;;;9.20;2.72;;;;;;;16.72;80.85;101105.66;5094248;28;20058;-63
2023/08/05 05:14:22;;;;;;;11.10;2.95;;;;;;;16.82;80.56;101100.44;5093090;28;20043;-63
2023/08/05 05:16:49;;;;;;;7.75;2.72;;;;;;;16.93;79.92;101094.47;5111052;28;20063;-63
2023/08/05 05:19:17;;;;;;;9.15;2.92;;;;;;;16.92;80.08;101085.28;5111042;28;20035;-63
2023/08/05 05:21:44;;;;;;;7.97;2.65;;;;;;;16.98;80.30;101089.44;5093501;28;20049;-63
2023/08/05 05:24:12;;;;;;;9.55;2.90;;;;;;;16.82;79.43;101089.31;5102235;28;20055;-62
2023/08/05 05:26:39;;;;;;;7.75;3.00;;;;;;;16.73;80.28;101091.41;5089914;28;20376;-62
2023/08/05 05:29:07;;;;;;;8.88;2.88;;;;;;;16.88;80.35;101089.13;5111149;28;20043;-62
2023/08/05 05:31:34;;;;;;;11.02;3.33;;;;;;;16.86;80.13;101079.13;5110446;28;20056;-63
2023/08/05 05:34:01;;;;;;;6.82;2.88;;;;;;;16.81;79.70;101081.31;5080992;28;20054;-62
2023/08/05 05:36:29;;;;;;;6.95;2.75;;;;;;;17.00;79.97;101069.66;5110382;28;20058;-63
2023/08/05 05:38:56;;;;;;;8.55;2.65;;;;;;;16.96;79.79;101072.31;5109749;28;20043;-63
2023/08/05 05:41:23;;;;;;;11.20;5.03;;;;;;;17.14;79.13;101065.31;5092635;28;20069;-63
2023/08/05 05:43:50;;;;;;;12.93;6.30;;;;;;;17.23;78.76;101071.59;5112203;28;20420;-64
2023/08/05 05:46:19;;;;;;;8.35;3.58;;;;;;;17.26;78.13;101059.75;5088142;28;20039;-63
2023/08/05 05:48:47;;;;;;;7.03;2.60;;;;;;;17.24;77.53;101059.31;5065400;28;20039;-62
2023/08/05 05:51:14;;;;;;;7.07;2.72;;;;;;;17.21;77.47;101057.22;5098079;28;20047;-61
2023/08/05 05:53:42;;;;;;;6.70;2.55;;;;;;;17.25;77.47;101060.91;5109321;28;20056;-62
2023/08/05 05:56:10;;;;;;;8.63;2.88;;;;;;;17.23;77.25;101054.06;5108749;28;20475;-63
2023/08/05 05:58:37;;;;;;;7.60;2.75;;;;;;;17.46;77.06;101050.47;5097451;28;20063;-63
2023/08/05 06:01:04;;;;;;;7.47;2.78;;;;;;;17.39;76.52;101046.63;5110811;28;20529;-63
2023/08/05 06:03:33;;;;;;;10.10;2.92;;;;;;;17.49;76.52;101033.06;5086601;28;20043;-63
2023/08/05 06:06:01;;;;;;;18.30;2.63;;;;;;;17.49;75.80;101030.28;5107516;28;20047;-62
2023/08/05 06:08:29;;;;;;;7.15;2.42;;;;;;;17.58;75.63;101027.34;5107916;28;20300;-63
2023/08/05 06:11:02;;;;;;;8.07;2.72;;;;;;;17.58;75.02;101014.25;5109769;28;20062;-62
2023/08/05 06:13:30;;;;;;;6.20;2.35;;;;;;;17.80;74.79;101019.25;5091212;28;20054;-62
2023/08/05 06:15:57;;;;;;;8.15;2.45;;;;;;;17.55;74.71;101006.59;5109697;28;20048;-62
2023/08/05 06:18:24;;;;;;;7.10;2.45;;;;;;;17.46;75.12;101007.84;5075117;28;20043;-63
2023/08/05 06:20:52;;;;;;;6.75;2.80;;;;;;;17.40;75.35;101020.41;5108621;28;20055;-63
2023/08/05 06:23:19;;;;;;;6.80;2.50;;;;;;;17.39;75.09;101016.00;5110021;28;20051;-63
2023/08/05 06:25:46;;;;;;;9.00;2.75;;;;;;;17.38;75.25;101017.97;5103325;28;20865;-63
2023/08/05 06:28:14;;;;;;;7.00;2.38;;;;;;;17.56;75.07;101019.34;5107192;28;20047;-62
2023/08/05 06:30:43;;;;;;;6.43;2.50;;;;;;;17.61;74.66;101018.28;5100970;28;20047;-63
2023/08/05 06:33:11;;;;;;;12.48;2.75;;;;;;;17.49;75.46;101030.28;5095800;28;20040;-63
2023/08/05 06:35:39;;;;;;;7.70;2.50;;;;;;;17.73;75.48;101007.91;5101996;28;20352;-63
2023/08/05 06:38:07;;;;;;;7.40;4.25;;;;;;;17.92;74.20;101007.25;5108594;28;20043;-63
2023/08/05 06:40:34;;;;;;;8.15;2.83;;;;;;;17.79;73.99;101000.94;5109372;28;20047;-63
2023/08/05 06:43:01;;;;;;;13.70;3.38;;;;;;;17.86;73.63;100994.75;5086136;28;20147;-62
2023/08/05 06:45:29;;;;;;;7.55;2.40;;;;;;;18.15;73.28;100980.41;5090659;28;20055;-63
2023/08/05 06:47:56;;;;;;;6.40;2.42;;;;;;;18.08;72.30;100987.78;5109756;28;20495;-62
2023/08/05 06:50:23;;;;;;;7.32;2.63;;;;;;;18.16;72.25;100984.00;5104224;28;20051;-64
2023/08/05 06:52:51;;;;;;;10.27;2.78;;;;;;;18.20;71.60;100993.28;5110735;28;20410;-62
2023/08/05 06:55:19;;;;;;;8.90;2.47;;;;;;;18.52;70.99;100990.19;5106957;28;20040;-63
2023/08/05 06:57:50;;;;;;;10.15;2.53;;;;;;;18.47;70.42;100981.28;5107285;28;20054;-63
2023/08/05 07:00:17;;;;;;;;;;;;;;;18.40;69.89;100983.84;5102500;28;20052;-63
2023/08/05 07:02:44;;;;;;;6.38;2.03;;;;;;;18.39;68.61;100976.66;5110378;28;19926;-63
2023/08/05 07:05:12;;;;;;;9.45;2.28;;;;;;;18.19;69.00;100977.72;5109089;28;20044;-63
2023/08/05 07:07:40;;;;;;;6.82;2.08;;;;;;;18.04;69.16;100981.28;5108509;28;20047;-63
2023/08/05 07:10:11;;;;;;;8.35;2.17;;;;;;;18.25;68.14;100970.72;5105408;28;20082;-63
2023/08/05 07:12:39;;;;;;;5.70;2.25;;;;;;;18.17;68.54;100957.72;5113681;28;20051;-63
2023/08/05 07:15:06;;;;;;;6.82;2.22;;;;;;;18.20;68.74;100957.03;5090798;28;20407;-64
2023/08/05 07:17:35;;;;;;;6.28;2.08;;;;;;;18.29;68.41;100950.09;5113547;28;20055;-63
2023/08/05 07:20:04;;;;;;;7.05;1.92;;;;;;;18.61;67.69;100954.53;5112907;28;20054;-63
2023/08/05 07:22:32;;;;;;;10.73;1.87;;;;;;;18.75;67.67;100962.44;5113410;28;20542;-63
2023/08/05 07:24:59;;;;;;;7.45;2.33;;;;;;;18.70;67.12;100962.72;5104784;28;20305;-63
2023/08/05 07:27:27;;;;;;;5.82;2.13;;;;;;;18.80;66.91;100973.31;5100072;28;20048;-63
2023/08/05 07:29:55;;;;;;;8.15;2.40;;;;;;;18.72;66.81;100966.78;5113389;28;20040;-63
2023/08/05 07:32:22;;;;;;;7.68;2.17;;;;;;;18.75;67.45;100959.66;5107789;28;20051;-63
2023/08/05 07:34:53;;;;;;;9.02;2.13;;;;;;;18.85;66.66;100953.50;5112251;28;20059;-64
2023/08/05 07:37:21;;;;;;;7.40;2.28;;;;;;;18.75;67.01;100951.28;5094635;28;20055;-63
2023/08/05 07:39:51;;;;;;;5.95;2.85;;;;;;;18.89;66.62;100949.66;5112924;28;20060;-63
2023/08/05 07:42:22;;;;;;;7.88;2.30;;;;;;;18.78;67.19;100951.38;5096432;28;20755;-63
2023/08/05 07:44:52;;;;;;;4.30;2.00;;;;;;;18.78;66.66;100948.56;5108827;28;20040;-63
2023/08/05 07:47:19;;;;;;;8.00;2.20;;;;;;;19.00;66.21;100961.06;5113595;28;20059;-63
2023/08/05 07:49:48;;;;;;;6.90;1.77;;;;;;;19.33;65.53;100958.66;5111306;28;20402;-63
2023/08/05 07:52:15;;;;;;;7.97;2.05;;;;;;;19.19;65.32;100952.72;5113551;28;20050;-63
2023/08/05 07:54:45;;;;;;;5.60;1.80;;;;;;;19.22;64.33;100949.19;5106514;28;20486;-63
2023/08/05 07:57:12;;;;;;;5.53;1.77;;;;;;;19.18;63.75;100951.06;5109596;28;20048;-63
2023/08/05 07:59:39;;;;;;;5.88;2.20;;;;;;;19.40;63.30;100938.44;5086735;28;20047;-63
2023/08/05 08:02:10;;;;;;;7.10;2.13;;;;;;;19.26;63.31;100935.28;5098353;28;20044;-62
2023/08/05 08:04:37;;;;;;;;;;;;;;;19.43;61.57;100927.31;5105117;28;20048;-62
2023/08/05 08:07:04;;;;;;;5.82;1.60;;;;;;;19.20;63.05;100931.97;5094500;28;19919;-63
2023/08/05 08:09:32;;;;;;;5.82;1.70;;;;;;;19.25;63.32;100922.53;5092642;28;20035;-63
2023/08/05 08:11:59;;;;;;;4.72;1.85;;;;;;;19.45;62.51;100924.16;5110564;28;20051;-63
2023/08/05 08:14:27;;;;;;;7.25;1.88;;;;;;;19.57;61.31;100919.22;5108305;28;20425;-62
2023/08/05 08:16:54;;;;;;;5.85;1.95;;;;;;;19.35;61.66;100919.97;5109322;28;20044;-64
2023/08/05 08:19:22;;;;;;;5.50;1.85;;;;;;;19.34;62.04;100921.13;5109313;28;20052;-64
2023/08/05 08:21:50;;;;;;;8.50;1.70;;;;;;;19.34;61.50;100923.13;5109842;28;20126;-63
2023/08/05 08:24:18;;;;;;;3.80;1.60;;;;;;;19.14;62.93;100911.13;5107151;28;20054;-62
2023/08/05 08:26:45;;;;;;;11.50;1.90;;;;;;;19.20;62.94;100911.59;5084680;28;20111;-63
2023/08/05 08:29:13;;;;;;;7.50;2.20;;;;;;;19.33;62.81;100908.38;5101393;28;20047;-63
2023/08/05 08:31:40;;;;;;;5.45;1.80;;;;;;;19.58;62.28;100906.88;5108640;28;20693;-64
2023/08/05 08:34:07;;;;;;;4.65;1.50;;;;;;;19.70;62.13;100906.69;5104046;28;20055;-62
2023/08/05 08:36:35;;;;;;;5.95;2.15;;;;;;;19.58;61.64;100915.25;5110787;28;20047;-63
2023/08/05 08:39:02;;;;;;;7.43;1.70;;;;;;;19.48;61.50;100913.06;5102191;28;20047;-63
2023/08/05 08:41:32;;;;;;;7.40;1.95;;;;;;;19.55;62.45;100904.81;5090589;28;20047;-63
2023/08/05 08:44:02;;;;;;;4.53;1.77;;;;;;;19.39;62.69;100920.84;5109198;28;20054;-63
2023/08/05 08:46:29;;;;;;;9.55;2.13;;;;;;;19.29;63.14;100906.63;5070977;28;20044;-63
2023/08/05 08:48:57;;;;;;;7.00;2.25;;;;;;;19.16;64.02;100905.94;5096510;28;20040;-63
2023/08/05 08:51:25;;;;;;;9.32;1.83;;;;;;;19.36;63.19;100909.59;5099419;28;20051;-63
2023/08/05 08:53:53;;;;;;;8.15;1.98;;;;;;;19.64;61.23;100911.00;5092839;28;20047;-63
2023/08/05 08:56:21;;;;;;;6.75;1.95;;;;;;;19.20;63.16;100895.66;5096479;28;20055;-63
2023/08/05 08:58:48;;;;;;;6.30;1.92;;;;;;;19.10;63.54;100887.88;5088680;28;20043;-63
2023/08/05 09:01:17;;;;;;;8.70;2.47;;;;;;;19.12;63.82;100881.94;5112695;28;20043;-62
2023/08/05 09:03:50;;;;;;;11.82;1.90;;;;;;;19.17;63.04;100887.22;5103426;28;20043;-63
2023/08/05 09:06:22;;;;;;;3.95;1.77;;;;;;;19.44;62.45;100894.63;5103568;28;20406;-63
2023/08/05 09:08:50;;;;;;;6.80;2.05;;;;;;;19.29;63.90;100876.72;5109547;28;20068;-61
2023/08/05 09:11:17;;;;;;;6.85;2.03;;;;;;;19.34;64.03;100865.28;5085066;28;20036;-63
2023/08/05 09:13:45;;;;;;;5.80;1.70;;;;;;;19.56;64.14;100855.34;5103985;28;20063;-63
2023/08/05 09:16:13;;;;;;;7.22;2.00;;;;;;;19.65;63.42;100853.91;5110952;28;20658;-63
2023/08/05 09:18:51;;;;;;;9.48;2.00;;;;;;;19.75;62.56;100853.28;5100735;28;20588;-63
2023/08/05 09:21:22;;;;;;;5.80;1.67;;;;;;;19.89;62.61;100852.75;5112253;28;20088;-63
2023/08/05 09:23:49;;;;;;;6.10;1.80;;;;;;;19.94;62.57;100844.06;5109453;28;20101;-63
2023/08/05 09:26:30;;;;;;;6.03;1.48;;;;;;;19.98;62.29;100856.91;5089998;28;20170;-62
2023/08/05 09:28:59;;;;;;;7.25;2.92;;;;;;;20.02;62.51;100835.41;5080338;28;20089;-62
2023/08/05 09:31:26;;;;;;;6.50;2.00;;;;;;;20.28;60.81;100837.44;5102072;28;20047;-63
2023/08/05 09:33:54;;;;;;;5.75;2.10;;;;;;;20.30;61.09;100823.91;5101542;28;20043;-62
2023/08/05 09:36:25;;;;;;;9.35;1.83;;;;;;;20.29;60.38;100821.47;5110650;28;20043;-63
2023/08/05 09:39:06;;;;;;;9.07;2.20;;;;;;;20.03;60.96;100819.44;5097130;28;20052;-64
2023/08/05 09:41:35;;;;;;;5.40;1.73;;;;;;;20.00;60.67;100823.78;5104876;27;20047;-64
2023/08/05 09:44:05;;;;;;;5.47;1.80;;;;;;;19.92;60.65;100815.66;5109296;27;20051;-62
2023/08/05 09:46:39;;;;;;;8.60;2.05;;;;;;;19.90;62.24;100806.81;5108778;28;20056;-61
2023/08/05 09:49:08;;;;;;;9.18;2.40;;;;;;;19.76;63.12;100815.78;5112838;28;20062;-62
2023/08/05 09:51:36;;;;;;;7.55;1.98;;;;;;;19.78;62.81;100807.03;5110887;27;20040;-63
2023/08/05 09:54:05;;;;;;;6.72;2.15;;;;;;;19.74;63.83;100804.16;5074757;28;20055;-61
2023/08/05 09:56:32;;;;;;;8.43;2.33;;;;;;;19.59;65.15;100802.31;5111877;28;20052;-62
2023/08/05 09:59:00;;;;;;;7.75;2.03;;;;;;;19.58;65.79;100788.72;5112019;28;20051;-62
2023/08/05 10:01:27;;;;;;;5.82;1.90;;;;;;;19.50;67.12;100789.75;5094138;28;20050;-62
2023/08/05 10:03:58;;;;;;;9.95;2.65;;;;;;;19.44;68.03;100783.66;5077037;28;20063;-61
2023/08/05 10:06:25;;;;;;;;;;;;;;;19.43;69.02;100772.84;5093898;28;20406;-62
2023/08/05 10:08:53;;;;;;;5.50;2.22;;;;;;;19.44;69.54;100758.50;5080202;28;19924;-61
2023/08/05 10:11:21;;;;;;;5.03;1.88;;;;;;;19.40;69.89;100762.44;5094056;28;20738;-64
2023/08/05 10:13:52;;;;;;;6.93;2.25;;;;;;;19.16;70.93;100757.16;5093033;28;20054;-65
2023/08/05 10:16:20;;;;;;;7.57;2.08;;;;;;;19.30;71.77;100758.25;5107341;28;20055;-63
2023/08/05 10:18:48;;;;;;;9.00;2.28;;;;;;;19.23;71.62;100754.50;5111100;28;20047;-63
2023/08/05 10:21:38;;;;;;;5.75;2.40;;;;;;;19.54;70.33;100757.91;5113025;28;20048;-63
2023/08/05 10:24:05;;;;;;;6.75;2.40;;;;;;;19.36;70.81;100756.78;5091278;28;20061;-63
2023/08/05 10:26:46;;;;;;;4.97;2.20;;;;;;;19.50;70.66;100757.03;5094163;28;20056;-63
2023/08/05 10:29:29;;;;;;;7.97;2.33;;;;;;;19.59;70.56;100765.97;5094412;28;20059;-62
2023/08/05 10:32:10;;;;;;;4.30;1.90;;;;;;;19.66;70.41;100757.72;5078547;28;21759;-64
2023/08/05 10:34:37;;;;;;;7.32;2.30;;;;;;;19.79;70.31;100756.31;5108952;28;20054;-65
2023/08/05 10:37:05;;;;;;;5.53;2.42;;;;;;;19.59;71.01;100742.81;5093466;28;20055;-64
2023/08/05 10:39:44;;;;;;;7.57;2.22;;;;;;;19.79;70.14;100739.56;5098178;28;20056;-63
2023/08/05 10:42:27;;;;;;;7.15;2.22;;;;;;;19.83;70.60;100742.41;5115287;28;20047;-63
2023/08/05 10:44:55;;;;;;;12.65;2.58;;;;;;;20.02;69.88;100731.94;5114606;28;20060;-63
2023/08/05 10:47:22;;;;;;;6.68;2.17;;;;;;;20.12;69.26;100719.28;5105887;28;20050;-63
2023/08/05 10:49:55;;;;;;;7.78;2.55;;;;;;;20.29;69.35;100710.41;5116431;28;20075;-62
2023/08/05 10:52:27;;;;;;;6.40;2.42;;;;;;;20.57;68.09;100704.34;5097416;28;20410;-64
2023/08/05 10:54:54;;;;;;;8.30;2.22;;;;;;;20.72;67.42;100694.94;5116162;28;20117;-63
2023/08/05 10:57:34;;;;;;;5.32;2.00;;;;;;;20.64;66.21;100682.06;5085980;28;20059;-62
2023/08/05 11:00:03;;;;;;;8.30;2.47;;;;;;;20.74;66.71;100656.16;5112444;28;21344;-62
2023/08/05 11:02:31;;;;;;;6.22;2.33;;;;;;;20.98;65.64;100659.28;5116844;28;20667;-63
2023/08/05 11:05:08;;;;;;;6.75;2.30;;;;;;;20.66;64.97;100660.09;5115691;28;20047;-62
2023/08/05 11:07:37;;;;;;;6.70;2.65;;;;;;;20.65;65.33;100653.69;5117196;28;20048;-62
2023/08/05 11:10:05;;;;;;;6.13;2.60;;;;;;;20.84;64.18;100639.50;5116118;28;20507;-63
2023/08/05 11:12:33;;;;;;;6.60;2.30;;;;;;;20.75;63.27;100627.78;5097617;28;20051;-63
2023/08/05 11:15:00;;;;;;;7.70;2.25;;;;;;;20.62;63.28;100625.66;5115896;28;20055;-63
2023/08/05 11:17:28;;;;;;;10.82;2.95;;;;;;;20.61;63.44;100624.84;5130791;27;20379;-62
2023/08/05 11:19:57;;;;;;;6.72;2.65;;;;;;;20.56;63.62;100614.00;5113880;28;20474;-61
2023/08/05 11:22:28;;;;;;;7.40;2.90;;;;;;;20.39;64.66;100613.78;5097569;28;20032;-64
2023/08/05 11:25:03;;;;;;;8.50;2.95;;;;;;;20.40;64.24;100615.41;5100469;27;20058;-63
2023/08/05 11:27:37;;;;;;;9.15;2.70;;;;;;;20.36;63.68;100617.34;5112942;28;20401;-62
2023/08/05 11:30:14;;;;;;;7.03;2.38;;;;;;;19.97;64.74;100612.03;5114214;28;20050;-62